KDEC

Decatur Airport

Decatur, Illinois, USA
METAR KDEC 181419Z 02007KT 10SM FEW009 24/23 A3002 RMK AO2 T02440228
Observed Flight Rules
Aug-18 @ 14:19 UTC (32 minutes ago) Visual Flight Rules
Wind Visibility Clouds
20° at 7 knots 10 miles
  • Few at 900' AGL
Temperatures Readings
Current 24°C / 75°F
Dewpoint 23°C / 73°F
Humidity 94%
Altimeter 30.02" Hg
Pressure 1017 hPa
Elevation 207
METAR KDEC 181419Z 02007KT 10SM FEW009 24/23 A3002 RMK AO2 T02440228
Observed Flight Rules
Aug-18 @ 14:19 UTC
(32 minutes ago)
VFR
Wind Visibility
20° at 7 knots 10 miles
Clouds
  • Few at 900' AGL
Temperature Dewpoint
24°C / 75°F 23°C / 73°F
Humidity Altimeter Pressure
94% 30.02" Hg 1017 hPa